Time;durP1;ratioP1;P1;durP2;ratioP2;P2;SDS_P1;SDS_P2;PMS_P1;PMS_P2;Temp;Humidity;BMP_temperature;BMP_pressure;BME280_temperature;BME280_humidity;BME280_pressure;Samples;Min_cycle;Max_cycle;Signal;HPM_P1;HPM_P2
2022/09/22 00:00:26;;;;;;;;;;;6.90;99.90;;;;;;5029325;28;19927;-28
2022/09/22 00:02:54;;;;;;;;;;;6.90;99.90;;;;;;5028802;28;20008;-28
2022/09/22 00:05:22;;;;;;;;;;;6.80;99.90;;;;;;5019789;28;19971;-29
2022/09/22 00:07:48;;;;;;;;;;;6.80;99.90;;;;;;5017984;28;20302;-28
2022/09/22 00:10:14;;;;;;;;;;;6.80;99.90;;;;;;5011550;28;19979;-29
2022/09/22 00:12:39;;;;;;;;;;;6.80;99.90;;;;;;5018081;28;19917;-28
2022/09/22 00:15:08;;;;;;;;;;;6.80;99.90;;;;;;5013377;28;19925;-29
2022/09/22 00:17:34;;;;;;;;;;;6.80;99.90;;;;;;5017901;28;19964;-29
2022/09/22 00:19:59;;;;;;;;;;;6.80;99.90;;;;;;5027852;28;20354;-30
2022/09/22 00:22:27;;;;;;;;;;;6.70;99.90;;;;;;5023269;28;20015;-29
2022/09/22 00:24:52;;;;;;;;;;;6.70;99.90;;;;;;5021033;28;19967;-29
2022/09/22 00:27:18;;;;;;;;;;;6.70;99.90;;;;;;5016347;28;19916;-29
2022/09/22 00:29:44;;;;;;;;;;;6.60;99.90;;;;;;5011283;28;19917;-28
2022/09/22 00:32:09;;;;;;;;;;;6.60;99.90;;;;;;5012089;28;20339;-29
2022/09/22 00:34:35;;;;;;;;;;;6.60;99.90;;;;;;5020088;28;20339;-28
2022/09/22 00:37:01;;;;;;;;;;;6.60;99.90;;;;;;5026166;28;19962;-28
2022/09/22 00:39:29;;;;;;;;;;;6.60;99.90;;;;;;5014511;28;20012;-27
2022/09/22 00:41:58;;;;;;;;;;;6.60;99.90;;;;;;5009478;28;20000;-28
2022/09/22 00:44:30;;;;;;;;;;;6.60;99.90;;;;;;5022869;28;20016;-28
2022/09/22 00:47:05;;;;;;;;;;;6.50;99.90;;;;;;5036461;28;19924;-28
2022/09/22 00:49:46;;;;;;;;;;;6.50;99.90;;;;;;5015448;28;19921;-28
2022/09/22 00:52:13;;;;;;;;;;;6.50;99.90;;;;;;5028149;28;19925;-28
2022/09/22 00:54:39;;;;;;;;;;;6.50;99.90;;;;;;5018873;28;19970;-28
2022/09/22 00:57:07;;;;;;;;;;;6.50;99.90;;;;;;5022932;28;19956;-28
2022/09/22 00:59:32;;;;;;;;;;;6.40;99.90;;;;;;5029428;28;19921;-28
2022/09/22 01:01:58;;;;;;;;;;;6.40;99.90;;;;;;5015413;28;19987;-28
2022/09/22 01:04:24;;;;;;;;;;;6.40;99.90;;;;;;5016161;28;19917;-29
2022/09/22 01:06:50;;;;;;;;;;;6.40;99.90;;;;;;5030921;28;19924;-29
2022/09/22 01:09:16;;;;;;;;;;;6.40;99.90;;;;;;5023897;28;19924;-29
2022/09/22 01:11:42;;;;;;;;;;;6.40;99.90;;;;;;5016471;28;19917;-28
2022/09/22 01:14:13;;;;;;;;;;;6.40;99.90;;;;;;5017396;28;19925;-28
2022/09/22 01:16:56;;;;;;;;;;;6.30;99.90;;;;;;5025652;28;20274;-28
2022/09/22 01:19:41;;;;;;;;;;;6.30;99.90;;;;;;5013035;28;19928;-28
2022/09/22 01:22:25;;;;;;;;;;;6.30;99.90;;;;;;5019051;28;19969;-29
2022/09/22 01:25:17;;;;;;;;;;;6.30;99.90;;;;;;5025929;28;19957;-28
2022/09/22 01:27:55;;;;;;;;;;;6.30;99.90;;;;;;5017655;28;20034;-28
2022/09/22 01:30:30;;;;;;;;;;;6.20;99.90;;;;;;5033800;28;19917;-28
2022/09/22 01:33:02;;;;;;;;;;;6.20;99.90;;;;;;5010992;28;20335;-29
2022/09/22 01:35:30;;;;;;;;;;;6.20;99.90;;;;;;5036737;28;19923;-28
2022/09/22 01:38:02;;;;;;;;;;;6.20;99.90;;;;;;5027259;28;20370;-28
2022/09/22 01:40:28;;;;;;;;;;;6.20;99.90;;;;;;5032080;28;19943;-28
2022/09/22 01:42:56;;;;;;;;;;;6.20;99.90;;;;;;5029785;28;19921;-28
2022/09/22 01:45:24;;;;;;;;;;;6.20;99.90;;;;;;5010816;28;19924;-29
2022/09/22 01:47:56;;;;;;;;;;;6.10;99.90;;;;;;5014040;28;19917;-28
2022/09/22 01:50:24;;;;;;;;;;;6.10;99.90;;;;;;5015812;28;19917;-29
2022/09/22 01:52:51;;;;;;;;;;;6.10;99.90;;;;;;5015800;28;19917;-29
2022/09/22 01:55:23;;;;;;;;;;;6.10;99.90;;;;;;5015270;28;19917;-29
2022/09/22 01:57:55;;;;;;;;;;;6.10;99.90;;;;;;5025552;28;19916;-29
2022/09/22 02:00:22;;;;;;;;;;;6.10;99.90;;;;;;5031549;28;20374;-29
2022/09/22 02:03:03;;;;;;;;;;;6.10;99.90;;;;;;5010938;28;20062;-29
2022/09/22 02:05:33;;;;;;;;;;;6.10;99.90;;;;;;5013063;28;19962;-28
2022/09/22 02:08:00;;;;;;;;;;;6.00;99.90;;;;;;5027339;28;20047;-28
2022/09/22 02:10:31;;;;;;;;;;;6.00;99.90;;;;;;5015759;28;19921;-28
2022/09/22 02:12:56;;;;;;;;;;;6.00;99.90;;;;;;5017491;28;19956;-29
2022/09/22 02:18:11;;;;;;;;;;;5.90;99.90;;;;;;5024847;28;19921;-29
2022/09/22 02:20:37;;;;;;;;;;;6.00;99.90;;;;;;5021713;28;19925;-28
2022/09/22 02:23:03;;;;;;;;;;;5.90;99.90;;;;;;5008051;28;20379;-29
2022/09/22 02:25:29;;;;;;;;;;;5.90;99.90;;;;;;5011204;28;20000;-29
2022/09/22 02:27:55;;;;;;;;;;;5.90;99.90;;;;;;5015486;28;20259;-28
2022/09/22 02:30:21;;;;;;;;;;;5.90;99.90;;;;;;5019777;28;19924;-29
2022/09/22 02:32:48;;;;;;;;;;;5.80;99.90;;;;;;5031893;28;19916;-29
2022/09/22 02:35:14;;;;;;;;;;;5.80;99.90;;;;;;5015788;28;20010;-28
2022/09/22 02:37:45;;;;;;;;;;;5.90;99.90;;;;;;5024379;28;19980;-29
2022/09/22 02:40:17;;;;;;;;;;;5.80;99.90;;;;;;5014644;28;19921;-29
2022/09/22 02:42:54;;;;;;;;;;;5.80;99.90;;;;;;5031220;28;19916;-29
2022/09/22 02:45:26;;;;;;;;;;;5.80;99.90;;;;;;5015044;28;19924;-29
2022/09/22 02:47:56;;;;;;;;;;;5.80;99.90;;;;;;5015105;28;20358;-29
2022/09/22 02:50:22;;;;;;;;;;;5.80;99.90;;;;;;5014817;28;20381;-29
2022/09/22 02:52:50;;;;;;;;;;;5.80;99.90;;;;;;5025224;28;19990;-29
2022/09/22 02:55:15;;;;;;;;;;;5.70;99.90;;;;;;5010931;28;20400;-29
2022/09/22 02:57:42;;;;;;;;;;;5.70;99.90;;;;;;5007902;28;19921;-29
2022/09/22 03:00:08;;;;;;;;;;;5.70;99.90;;;;;;5031317;28;19924;-28
2022/09/22 03:02:34;;;;;;;;;;;5.70;99.90;;;;;;5014394;28;19921;-28
2022/09/22 03:05:00;;;;;;;;;;;5.70;99.90;;;;;;5005434;28;19924;-29
2022/09/22 03:07:25;;;;;;;;;;;5.70;99.90;;;;;;5021176;28;20004;-29
2022/09/22 03:09:51;;;;;;;;;;;5.70;99.90;;;;;;5014517;28;19924;-28
2022/09/22 03:12:17;;;;;;;;;;;5.70;99.90;;;;;;5023421;28;20421;-29
2022/09/22 03:14:43;;;;;;;;;;;5.70;99.90;;;;;;5021809;28;19917;-28
2022/09/22 03:17:08;;;;;;;;;;;5.70;99.90;;;;;;5014319;28;19917;-28
2022/09/22 03:19:34;;;;;;;;;;;5.70;99.90;;;;;;4997974;28;19921;-29
2022/09/22 03:21:59;;;;;;;;;;;5.70;99.90;;;;;;5013924;28;19916;-29
2022/09/22 03:24:25;;;;;;;;;;;5.70;99.90;;;;;;5007128;28;19917;-29
2022/09/22 03:26:51;;;;;;;;;;;5.70;99.90;;;;;;5014429;28;20367;-29
2022/09/22 03:29:16;;;;;;;;;;;5.70;99.90;;;;;;5014556;28;19956;-28
2022/09/22 03:31:42;;;;;;;;;;;5.70;99.90;;;;;;5028881;28;19943;-29
2022/09/22 03:34:08;;;;;;;;;;;5.70;99.90;;;;;;5006328;28;19917;-29
2022/09/22 03:36:33;;;;;;;;;;;5.70;99.90;;;;;;5024408;28;20310;-28
2022/09/22 03:38:59;;;;;;;;;;;5.60;99.90;;;;;;5027367;28;19921;-28
2022/09/22 03:41:25;;;;;;;;;;;5.60;99.90;;;;;;5031182;28;19920;-29
2022/09/22 03:43:51;;;;;;;;;;;5.60;99.90;;;;;;5033296;28;19923;-28
2022/09/22 03:46:16;;;;;;;;;;;5.60;99.90;;;;;;5027854;28;19916;-28
2022/09/22 03:48:42;;;;;;;;;;;5.60;99.90;;;;;;5026462;28;20366;-29
2022/09/22 03:51:07;;;;;;;;;;;5.60;99.90;;;;;;5020493;28;19971;-29
2022/09/22 03:53:33;;;;;;;;;;;5.60;99.90;;;;;;5017072;28;19925;-28
2022/09/22 03:56:03;;;;;;;;;;;5.60;99.90;;;;;;5018964;28;19967;-29
2022/09/22 03:58:29;;;;;;;;;;;5.60;99.90;;;;;;5013554;28;19917;-28
2022/09/22 04:00:54;;;;;;;;;;;5.60;99.90;;;;;;5024419;28;19917;-29
2022/09/22 04:03:22;;;;;;;;;;;5.60;99.90;;;;;;5020263;28;20424;-29
2022/09/22 04:05:48;;;;;;;;;;;5.60;99.90;;;;;;5020354;28;19921;-28
2022/09/22 04:08:14;;;;;;;;;;;5.60;99.90;;;;;;5025854;28;20344;-29
2022/09/22 04:10:40;;;;;;;;;;;5.50;99.90;;;;;;5012286;28;19920;-28
2022/09/22 04:13:05;;;;;;;;;;;5.60;99.90;;;;;;5021899;28;20007;-29
2022/09/22 04:15:31;;;;;;;;;;;5.50;99.90;;;;;;5024433;28;19917;-29
2022/09/22 04:17:56;;;;;;;;;;;5.50;99.90;;;;;;5021293;28;20374;-29
2022/09/22 04:20:22;;;;;;;;;;;5.50;99.90;;;;;;5018201;28;19928;-28
2022/09/22 04:22:48;;;;;;;;;;;5.50;99.90;;;;;;5015710;28;20279;-29
2022/09/22 04:25:13;;;;;;;;;;;5.40;99.90;;;;;;5032798;28;19921;-29
2022/09/22 04:27:39;;;;;;;;;;;5.50;99.90;;;;;;5037443;28;19996;-28
2022/09/22 04:30:05;;;;;;;;;;;5.40;99.90;;;;;;5015155;28;19921;-28
2022/09/22 04:32:31;;;;;;;;;;;5.50;99.90;;;;;;5010960;28;19917;-28
2022/09/22 04:34:56;;;;;;;;;;;5.40;99.90;;;;;;5019440;28;19918;-28
2022/09/22 04:37:22;;;;;;;;;;;5.40;99.90;;;;;;5027483;28;19963;-28
2022/09/22 04:39:48;;;;;;;;;;;5.40;99.90;;;;;;5016161;28;20306;-29
2022/09/22 04:42:13;;;;;;;;;;;5.40;99.90;;;;;;5014435;28;19969;-29
2022/09/22 04:44:39;;;;;;;;;;;5.40;99.90;;;;;;5014916;28;20011;-28
2022/09/22 04:47:05;;;;;;;;;;;5.40;99.90;;;;;;5019945;28;19917;-29
2022/09/22 04:49:30;;;;;;;;;;;5.40;99.90;;;;;;5017230;28;19921;-29
2022/09/22 04:51:56;;;;;;;;;;;5.30;99.90;;;;;;5017056;28;20317;-29
2022/09/22 04:54:22;;;;;;;;;;;5.30;99.90;;;;;;5034270;28;20329;-29
2022/09/22 04:56:47;;;;;;;;;;;5.30;99.90;;;;;;5005760;28;20442;-29
2022/09/22 04:59:13;;;;;;;;;;;5.30;99.90;;;;;;5020953;28;19925;-28
2022/09/22 05:01:38;;;;;;;;;;;5.30;99.90;;;;;;5019153;28;19921;-29
2022/09/22 05:04:04;;;;;;;;;;;5.30;99.90;;;;;;5015874;28;20275;-29
2022/09/22 05:06:30;;;;;;;;;;;5.30;99.90;;;;;;5014718;28;20422;-29
2022/09/22 05:08:55;;;;;;;;;;;5.30;99.90;;;;;;5003683;28;19928;-29
2022/09/22 05:11:22;;;;;;;;;;;5.30;99.90;;;;;;5014807;28;19917;-29
2022/09/22 05:13:49;;;;;;;;;;;5.30;99.90;;;;;;5004807;28;19917;-29
2022/09/22 05:16:15;;;;;;;;;;;5.30;99.90;;;;;;5026604;28;19917;-28
2022/09/22 05:18:41;;;;;;;;;;;5.30;99.90;;;;;;5005966;28;20272;-29
2022/09/22 05:21:06;;;;;;;;;;;5.30;99.90;;;;;;5029296;28;19996;-29
2022/09/22 05:23:32;;;;;;;;;;;5.20;99.90;;;;;;5009192;28;19924;-28
2022/09/22 05:25:59;;;;;;;;;;;5.20;99.90;;;;;;5016623;28;20007;-29
2022/09/22 05:28:24;;;;;;;;;;;5.20;99.90;;;;;;5006506;28;20358;-29
2022/09/22 05:30:50;;;;;;;;;;;5.20;99.90;;;;;;5016202;28;19952;-29
2022/09/22 05:33:16;;;;;;;;;;;5.20;99.90;;;;;;5017998;28;19996;-28
2022/09/22 05:35:42;;;;;;;;;;;5.20;99.90;;;;;;5009751;28;19957;-29
2022/09/22 05:38:07;;;;;;;;;;;5.20;99.90;;;;;;5009416;28;20152;-30
2022/09/22 05:40:33;;;;;;;;;;;5.30;99.90;;;;;;5020465;28;19929;-29
2022/09/22 05:42:58;;;;;;;;;;;5.30;99.90;;;;;;5008268;28;19924;-29
2022/09/22 05:45:24;;;;;;;;;;;5.30;99.90;;;;;;5011371;28;19916;-30
2022/09/22 05:47:50;;;;;;;;;;;5.30;99.90;;;;;;5016662;28;19943;-28
2022/09/22 05:50:17;;;;;;;;;;;5.30;99.90;;;;;;5016528;28;19951;-28
2022/09/22 05:52:42;;;;;;;;;;;5.30;99.90;;;;;;5021302;28;19916;-28
2022/09/22 05:55:08;;;;;;;;;;;5.40;99.90;;;;;;5032801;28;20617;-28
2022/09/22 05:57:34;;;;;;;;;;;5.30;99.90;;;;;;5011571;28;19928;-28
2022/09/22 06:00:00;;;;;;;;;;;5.30;99.90;;;;;;5016100;28;19928;-29
2022/09/22 06:02:25;;;;;;;;;;;5.40;99.90;;;;;;5010710;28;19920;-28
2022/09/22 06:04:51;;;;;;;;;;;5.40;99.90;;;;;;5009885;28;19941;-28
2022/09/22 06:07:20;;;;;;;;;;;5.40;99.90;;;;;;5007309;28;20013;-28
2022/09/22 06:09:46;;;;;;;;;;;5.50;99.90;;;;;;5012396;28;19917;-29
2022/09/22 06:12:12;;;;;;;;;;;5.50;99.90;;;;;;5026259;28;20403;-29
2022/09/22 06:14:37;;;;;;;;;;;5.60;99.90;;;;;;5011338;28;19924;-29
2022/09/22 06:17:03;;;;;;;;;;;5.60;99.90;;;;;;5015659;28;19921;-29
2022/09/22 06:19:29;;;;;;;;;;;5.60;99.90;;;;;;5022084;28;19927;-28
2022/09/22 06:21:55;;;;;;;;;;;5.60;99.90;;;;;;5018435;28;19917;-28
2022/09/22 06:24:22;;;;;;;;;;;5.70;99.90;;;;;;5015640;28;19928;-29
2022/09/22 06:26:48;;;;;;;;;;;5.70;99.90;;;;;;5030663;28;20358;-30
2022/09/22 06:29:14;;;;;;;;;;;5.80;99.90;;;;;;5010347;28;19963;-29
2022/09/22 06:31:40;;;;;;;;;;;5.90;99.90;;;;;;5010536;28;20007;-29
2022/09/22 06:34:07;;;;;;;;;;;5.90;99.90;;;;;;5019824;28;19943;-29
2022/09/22 06:36:33;;;;;;;;;;;6.00;99.90;;;;;;5005564;28;19917;-29
2022/09/22 06:39:03;;;;;;;;;;;6.10;99.90;;;;;;5014260;28;20342;-29
2022/09/22 06:41:30;;;;;;;;;;;6.10;99.90;;;;;;5005189;28;19983;-29
2022/09/22 06:43:55;;;;;;;;;;;6.20;99.90;;;;;;5015643;28;20366;-29
2022/09/22 06:46:25;;;;;;;;;;;6.20;99.90;;;;;;5017271;28;20182;-29
2022/09/22 06:48:56;;;;;;;;;;;6.30;99.90;;;;;;5015571;28;20333;-29
2022/09/22 06:51:32;;;;;;;;;;;6.40;99.90;;;;;;5016269;28;19984;-29
2022/09/22 06:53:59;;;;;;;;;;;6.50;99.90;;;;;;5028222;28;19917;-29
2022/09/22 06:56:25;;;;;;;;;;;6.60;99.90;;;;;;5008339;28;20389;-29
2022/09/22 06:58:51;;;;;;;;;;;6.60;99.90;;;;;;5013206;28;19921;-29
2022/09/22 07:01:18;;;;;;;;;;;6.70;99.90;;;;;;5006681;28;19917;-29
2022/09/22 07:03:44;;;;;;;;;;;6.80;99.90;;;;;;5009949;28;19929;-29
2022/09/22 07:06:12;;;;;;;;;;;6.80;99.90;;;;;;5011523;28;19927;-29
2022/09/22 07:08:38;;;;;;;;;;;6.90;99.90;;;;;;5011864;28;20278;-29
2022/09/22 07:11:08;;;;;;;;;;;6.90;99.90;;;;;;5037362;28;20359;-29
2022/09/22 07:13:38;;;;;;;;;;;7.00;99.90;;;;;;5008038;28;19925;-29
2022/09/22 07:16:07;;;;;;;;;;;7.00;99.90;;;;;;5016596;28;20293;-29
2022/09/22 07:18:32;;;;;;;;;;;7.10;99.90;;;;;;5005235;28;19917;-29
2022/09/22 07:21:06;;;;;;;;;;;7.20;99.90;;;;;;5006981;28;19923;-29
2022/09/22 07:23:35;;;;;;;;;;;7.20;99.90;;;;;;5030526;28;19917;-29
2022/09/22 07:26:09;;;;;;;;;;;7.30;99.90;;;;;;5008106;28;19963;-29
2022/09/22 07:28:35;;;;;;;;;;;7.40;99.90;;;;;;5012593;28;19917;-29
2022/09/22 07:31:05;;;;;;;;;;;7.50;99.90;;;;;;5007793;28;19918;-29
2022/09/22 07:33:34;;;;;;;;;;;7.60;99.90;;;;;;5034669;28;20422;-29
2022/09/22 07:36:07;;;;;;;;;;;7.80;99.90;;;;;;5025975;28;20378;-29
2022/09/22 07:38:37;;;;;;;;;;;8.00;99.90;;;;;;5023937;28;19924;-29
2022/09/22 07:41:03;;;;;;;;;;;8.10;99.90;;;;;;5018688;28;19917;-29
2022/09/22 07:43:29;;;;;;;;;;;8.30;99.90;;;;;;5013790;28;19917;-30
2022/09/22 07:45:56;;;;;;;;;;;8.50;99.90;;;;;;5010658;28;19923;-29
2022/09/22 07:48:35;;;;;;;;;;;8.80;99.90;;;;;;5016456;28;19917;-29
2022/09/22 07:51:01;;;;;;;;;;;9.20;99.90;;;;;;5019572;28;19967;-30
2022/09/22 07:53:26;;;;;;;;;;;9.50;99.90;;;;;;5001990;28;20287;-29
2022/09/22 07:55:52;;;;;;;;;;;9.90;99.90;;;;;;5014381;28;19917;-28
2022/09/22 07:58:18;;;;;;;;;;;10.30;99.90;;;;;;5009299;28;19917;-28
2022/09/22 08:00:43;;;;;;;;;;;10.70;99.90;;;;;;5014032;28;20378;-29
2022/09/22 08:03:09;;;;;;;;;;;11.10;99.90;;;;;;5033655;28;19924;-28
2022/09/22 08:05:35;;;;;;;;;;;11.40;99.90;;;;;;5017435;28;19921;-29
2022/09/22 08:08:02;;;;;;;;;;;11.80;99.90;;;;;;5011398;28;20016;-28
2022/09/22 08:10:32;;;;;;;;;;;12.10;99.90;;;;;;5017051;28;19944;-28
2022/09/22 08:12:59;;;;;;;;;;;12.40;99.90;;;;;;5015683;28;19917;-28
2022/09/22 08:15:25;;;;;;;;;;;12.80;99.90;;;;;;5018014;28;20420;-29
2022/09/22 08:17:54;;;;;;;;;;;13.40;99.90;;;;;;5008367;28;19921;-29
2022/09/22 08:20:20;;;;;;;;;;;14.00;99.90;;;;;;5004065;28;20272;-29
2022/09/22 08:22:50;;;;;;;;;;;14.60;99.90;;;;;;5033916;28;19964;-29
2022/09/22 08:25:15;;;;;;;;;;;15.00;99.90;;;;;;5007508;28;19917;-29
2022/09/22 08:27:41;;;;;;;;;;;15.50;99.90;;;;;;5034152;28;19924;-30
2022/09/22 08:30:10;;;;;;;;;;;15.80;99.90;;;;;;5024076;28;19917;-30
2022/09/22 08:32:36;;;;;;;;;;;16.00;99.90;;;;;;5007244;28;19917;-30
2022/09/22 08:35:02;;;;;;;;;;;16.30;99.90;;;;;;5011028;28;19924;-30
2022/09/22 08:37:28;;;;;;;;;;;16.50;99.90;;;;;;5017661;28;19971;-30
2022/09/22 08:39:54;;;;;;;;;;;16.80;99.90;;;;;;5015509;28;20325;-30
2022/09/22 08:42:21;;;;;;;;;;;17.10;99.90;;;;;;4996610;28;19923;-30
2022/09/22 08:44:56;;;;;;;;;;;17.50;99.90;;;;;;5007470;28;19925;-30
2022/09/22 08:53:34;;;;;;;;;;;18.10;99.90;;;;;;5038619;28;19925;-30
2022/09/22 08:56:28;;;;;;;;;;;18.20;99.90;;;;;;5018816;28;20062;-30
2022/09/22 08:59:07;;;;;;;;;;;18.40;99.90;;;;;;5003487;28;20414;-30
2022/09/22 09:01:34;;;;;;;;;;;18.60;99.90;;;;;;5022994;28;19965;-30
2022/09/22 09:04:07;;;;;;;;;;;18.90;99.90;;;;;;5021717;28;20010;-30
2022/09/22 09:07:09;;;;;;;;;;;19.00;99.90;;;;;;5042846;28;19924;-30
2022/09/22 09:09:46;;;;;;;;;;;19.40;99.90;;;;;;4947293;28;19926;-31
2022/09/22 09:12:15;;;;;;;;;;;19.60;99.90;;;;;;5015006;28;20290;-30
2022/09/22 09:14:46;;;;;;;;;;;19.60;99.90;;;;;;5002230;28;19965;-30
2022/09/22 09:17:22;;;;;;;;;;;19.80;99.90;;;;;;5030274;28;19917;-30
2022/09/22 09:19:53;;;;;;;;;;;19.70;99.90;;;;;;4984584;28;20426;-30
2022/09/22 09:22:23;;;;;;;;;;;19.90;99.90;;;;;;5017839;28;19917;-30
2022/09/22 09:24:58;;;;;;;;;;;19.90;95.90;;;;;;5029129;28;20364;-30
2022/09/22 09:27:25;;;;;;;;;;;20.10;90.50;;;;;;5017089;28;19921;-30
2022/09/22 09:29:54;;;;;;;;;;;20.40;93.60;;;;;;5008648;28;20016;-30
2022/09/22 09:32:40;;;;;;;;;;;20.40;92.40;;;;;;5024470;28;20419;-30
2022/09/22 09:35:13;;;;;;;;;;;20.50;94.30;;;;;;5003036;28;19918;-30
2022/09/22 09:37:41;;;;;;;;;;;20.90;99.90;;;;;;5028150;28;19917;-31
2022/09/22 09:40:14;;;;;;;;;;;20.90;77.50;;;;;;5007422;28;20283;-30
2022/09/22 09:42:39;;;;;;;;;;;21.00;77.30;;;;;;5003206;28;20064;-30
2022/09/22 09:45:08;;;;;;;;;;;21.00;93.00;;;;;;5007494;28;20011;-30
2022/09/22 09:47:46;;;;;;;;;;;21.30;93.40;;;;;;5002514;28;20018;-30
2022/09/22 09:50:12;;;;;;;;;;;21.50;66.60;;;;;;5006750;28;19931;-30
2022/09/22 09:52:38;;;;;;;;;;;21.70;90.70;;;;;;5005730;28;20373;-31
2022/09/22 09:55:30;;;;;;;;;;;21.70;83.80;;;;;;5011684;28;19921;-30
2022/09/22 09:58:02;;;;;;;;;;;21.80;75.10;;;;;;5012062;28;20298;-31
2022/09/22 10:00:30;;;;;;;;;;;22.20;86.10;;;;;;5015986;28;19927;-30
2022/09/22 10:03:03;;;;;;;;;;;22.80;90.20;;;;;;5004108;28;20375;-30
2022/09/22 10:05:29;;;;;;;;;;;22.70;65.30;;;;;;5016768;28;19940;-31
2022/09/22 10:07:54;;;;;;;;;;;22.50;65.10;;;;;;5021497;28;19917;-30
2022/09/22 10:10:22;;;;;;;;;;;22.80;71.30;;;;;;5009172;28;19940;-30
2022/09/22 10:12:47;;;;;;;;;;;22.90;62.50;;;;;;5005510;28;20000;-30
2022/09/22 10:15:23;;;;;;;;;;;23.20;59.30;;;;;;5008974;28;20536;-30
2022/09/22 10:17:50;;;;;;;;;;;23.40;61.60;;;;;;5009776;28;20069;-30
2022/09/22 10:20:23;;;;;;;;;;;23.30;53.20;;;;;;5018995;28;20404;-30
2022/09/22 10:22:49;;;;;;;;;;;23.30;56.20;;;;;;5015863;28;20068;-30
2022/09/22 10:25:20;;;;;;;;;;;23.50;53.10;;;;;;5008277;28;20417;-30
2022/09/22 10:27:59;;;;;;;;;;;23.70;54.10;;;;;;5004277;28;19917;-30
2022/09/22 10:30:26;;;;;;;;;;;22.90;49.90;;;;;;5008937;28;19921;-30
2022/09/22 10:33:07;;;;;;;;;;;22.80;55.90;;;;;;5009526;28;19924;-30
2022/09/22 10:35:33;;;;;;;;;;;22.90;53.40;;;;;;5019358;28;19917;-30
2022/09/22 10:38:06;;;;;;;;;;;22.90;53.20;;;;;;5008015;28;19917;-30
2022/09/22 10:40:32;;;;;;;;;;;22.90;51.50;;;;;;5011102;28;19921;-30
2022/09/22 10:42:58;;;;;;;;;;;23.40;56.60;;;;;;5015127;28;20001;-30
2022/09/22 10:45:35;;;;;;;;;;;24.00;51.90;;;;;;5000599;28;20297;-31
2022/09/22 10:48:20;;;;;;;;;;;24.10;52.10;;;;;;5012750;28;20007;-31
2022/09/22 10:50:54;;;;;;;;;;;24.70;50.50;;;;;;5003597;28;19918;-30
2022/09/22 10:53:24;;;;;;;;;;;24.80;47.70;;;;;;5008597;28;20382;-31
2022/09/22 10:55:56;;;;;;;;;;;24.90;46.90;;;;;;5010267;28;19968;-31
2022/09/22 10:58:30;;;;;;;;;;;24.90;46.30;;;;;;5022836;28;20383;-30
2022/09/22 11:01:12;;;;;;;;;;;25.10;48.20;;;;;;5021872;28;20342;-31
2022/09/22 11:03:46;;;;;;;;;;;24.80;48.90;;;;;;5014327;28;19916;-30
2022/09/22 11:12:15;;;;;;;;;;;24.90;47.20;;;;;;5033461;28;19917;-31
2022/09/22 11:14:41;;;;;;;;;;;25.40;46.80;;;;;;5021473;28;19928;-31
2022/09/22 11:17:37;;;;;;;;;;;25.80;48.40;;;;;;5017789;28;19917;-31
2022/09/22 11:20:15;;;;;;;;;;;26.50;47.10;;;;;;5010589;28;19921;-28
2022/09/22 11:23:00;;;;;;;;;;;27.00;43.50;;;;;;5020635;28;20001;-29
2022/09/22 11:25:32;;;;;;;;;;;27.50;42.00;;;;;;5031002;28;19978;-29
2022/09/22 11:28:04;;;;;;;;;;;27.60;42.50;;;;;;5031661;28;20378;-29
2022/09/22 11:30:33;;;;;;;;;;;27.40;40.20;;;;;;5023192;28;19931;-29
2022/09/22 11:33:01;;;;;;;;;;;27.50;39.00;;;;;;5004948;28;19917;-29
2022/09/22 11:35:43;;;;;;;;;;;27.30;42.50;;;;;;5013477;28;20394;-30
2022/09/22 11:38:30;;;;;;;;;;;27.10;42.00;;;;;;5022885;28;19924;-29
2022/09/22 11:40:55;;;;;;;;;;;26.70;41.40;;;;;;5009219;28;20371;-29
2022/09/22 11:43:33;;;;;;;;;;;26.70;38.80;;;;;;5009338;28;20055;-29
2022/09/22 11:46:09;;;;;;;;;;;26.70;40.50;;;;;;5010570;28;19924;-29
2022/09/22 11:48:46;;;;;;;;;;;26.90;39.30;;;;;;5003345;28;19917;-29
2022/09/22 11:51:31;;;;;;;;;;;27.00;39.60;;;;;;5004333;28;19979;-29
2022/09/22 11:54:22;;;;;;;;;;;27.20;38.20;;;;;;5025970;28;19924;-29
2022/09/22 11:56:50;;;;;;;;;;;26.90;39.30;;;;;;5011705;28;19964;-29
2022/09/22 11:59:24;;;;;;;;;;;25.70;39.30;;;;;;5009049;28;19921;-28
2022/09/22 12:01:52;;;;;;;;;;;25.00;40.90;;;;;;4999589;28;19939;-28
2022/09/22 12:04:29;;;;;;;;;;;24.10;42.00;;;;;;5017974;28;19924;-28
2022/09/22 12:06:55;;;;;;;;;;;23.70;44.90;;;;;;5020267;28;19917;-28
2022/09/22 12:09:39;;;;;;;;;;;24.00;45.50;;;;;;5018188;28;20361;-29
2022/09/22 12:12:10;;;;;;;;;;;24.60;44.20;;;;;;5031470;28;20418;-29
2022/09/22 12:14:37;;;;;;;;;;;25.00;42.00;;;;;;5006292;28;20287;-29
2022/09/22 12:17:16;;;;;;;;;;;24.30;42.00;;;;;;5006601;28;19917;-29
2022/09/22 12:19:58;;;;;;;;;;;23.70;42.50;;;;;;5013073;28;19966;-29
2022/09/22 12:22:33;;;;;;;;;;;24.00;45.40;;;;;;5020063;28;19943;-29
2022/09/22 12:25:00;;;;;;;;;;;25.00;42.20;;;;;;5011892;28;20394;-29
2022/09/22 12:27:27;;;;;;;;;;;25.60;41.50;;;;;;5017618;28;19924;-29
2022/09/22 12:29:53;;;;;;;;;;;25.20;39.90;;;;;;5009655;28;20359;-29
2022/09/22 12:32:24;;;;;;;;;;;24.60;41.30;;;;;;5036995;28;20255;-29
2022/09/22 12:34:50;;;;;;;;;;;23.80;42.00;;;;;;5025582;28;19921;-30
2022/09/22 12:37:26;;;;;;;;;;;23.30;44.30;;;;;;5025844;28;19917;-30
2022/09/22 12:39:52;;;;;;;;;;;23.00;44.80;;;;;;5016109;28;19921;-30
2022/09/22 12:42:27;;;;;;;;;;;23.10;46.10;;;;;;5011330;28;19918;-30
2022/09/22 12:44:57;;;;;;;;;;;23.70;46.50;;;;;;4996548;28;19921;-30
2022/09/22 12:47:26;;;;;;;;;;;23.40;43.50;;;;;;5013869;28;19917;-30
2022/09/22 12:49:55;;;;;;;;;;;23.10;44.00;;;;;;5011843;28;19917;-28
2022/09/22 12:52:39;;;;;;;;;;;23.00;46.30;;;;;;5024379;28;19917;-30
2022/09/22 12:55:29;;;;;;;;;;;23.90;45.70;;;;;;5023595;28;20359;-30
2022/09/22 12:57:54;;;;;;;;;;;25.10;45.20;;;;;;5005701;28;19929;-30
2022/09/22 13:00:24;;;;;;;;;;;26.60;45.00;;;;;;5013460;28;20302;-30
2022/09/22 13:02:50;;;;;;;;;;;27.70;43.80;;;;;;5008930;28;19917;-31
2022/09/22 13:05:24;;;;;;;;;;;27.40;40.60;;;;;;5022255;28;19996;-31
2022/09/22 13:07:51;;;;;;;;;;;28.10;39.20;;;;;;5015233;28;19917;-30
2022/09/22 13:10:20;;;;;;;;;;;29.00;38.90;;;;;;5010199;28;19917;-28
2022/09/22 13:15:42;;;;;;;;;;;28.60;35.10;;;;;;5020004;28;19917;-30
2022/09/22 13:18:26;;;;;;;;;;;28.80;36.60;;;;;;5029991;28;20401;-30
2022/09/22 13:20:52;;;;;;;;;;;28.80;36.20;;;;;;5011237;28;19921;-30
2022/09/22 13:23:17;;;;;;;;;;;28.70;36.80;;;;;;5016247;28;19944;-31
2022/09/22 13:25:43;;;;;;;;;;;28.90;37.70;;;;;;5004876;28;19917;-28
2022/09/22 13:28:09;;;;;;;;;;;29.50;36.60;;;;;;5006841;28;20007;-28
2022/09/22 13:30:36;;;;;;;;;;;29.50;35.00;;;;;;5032900;28;20004;-29
2022/09/22 13:33:02;;;;;;;;;;;29.50;36.80;;;;;;5009414;28;20283;-29
2022/09/22 13:35:30;;;;;;;;;;;29.60;36.30;;;;;;5010185;28;19924;-28
2022/09/22 13:37:56;;;;;;;;;;;29.50;34.70;;;;;;5020335;28;20014;-29
2022/09/22 13:40:24;;;;;;;;;;;29.10;35.00;;;;;;5017058;28;19928;-28
2022/09/22 13:42:51;;;;;;;;;;;27.80;35.20;;;;;;5014540;28;20280;-29
2022/09/22 13:45:20;;;;;;;;;;;26.70;36.90;;;;;;5011010;28;19923;-28
2022/09/22 13:47:46;;;;;;;;;;;26.00;39.60;;;;;;5007018;28;19921;-29
2022/09/22 13:50:14;;;;;;;;;;;26.30;40.60;;;;;;5009880;28;20000;-29
2022/09/22 13:52:41;;;;;;;;;;;27.00;39.20;;;;;;5001161;28;19917;-29
2022/09/22 13:55:12;;;;;;;;;;;27.00;37.10;;;;;;5007989;28;20008;-29
2022/09/22 13:57:38;;;;;;;;;;;27.60;39.90;;;;;;5035209;28;19917;-29
2022/09/22 14:00:05;;;;;;;;;;;28.00;37.60;;;;;;5046724;28;20011;-29
2022/09/22 14:02:31;;;;;;;;;;;28.00;35.80;;;;;;5025590;28;20358;-29
2022/09/22 14:05:01;;;;;;;;;;;27.30;35.70;;;;;;5006734;28;19918;-29
2022/09/22 14:07:29;;;;;;;;;;;26.60;39.10;;;;;;5015664;28;19948;-29
2022/09/22 14:09:55;;;;;;;;;;;27.00;40.20;;;;;;5015453;28;19921;-29
2022/09/22 14:12:21;;;;;;;;;;;27.60;39.40;;;;;;5006740;28;19924;-29
2022/09/22 14:14:47;;;;;;;;;;;28.00;36.80;;;;;;5010653;28;19921;-29
2022/09/22 14:17:14;;;;;;;;;;;27.90;35.70;;;;;;5019962;28;20386;-29
2022/09/22 14:19:44;;;;;;;;;;;27.20;38.20;;;;;;5015609;28;19964;-29
2022/09/22 14:22:18;;;;;;;;;;;27.10;39.70;;;;;;5022198;28;19924;-29
2022/09/22 14:24:48;;;;;;;;;;;27.00;38.70;;;;;;5017088;28;20290;-29
2022/09/22 14:27:20;;;;;;;;;;;27.70;39.70;;;;;;5021910;28;20356;-29
2022/09/22 14:29:47;;;;;;;;;;;28.10;37.50;;;;;;5026207;28;19971;-29
2022/09/22 14:32:16;;;;;;;;;;;28.40;37.10;;;;;;5008518;28;19917;-29
2022/09/22 14:34:46;;;;;;;;;;;29.00;36.80;;;;;;5016629;28;20007;-29
2022/09/22 14:37:23;;;;;;;;;;;29.50;36.10;;;;;;5026368;28;19917;-29
2022/09/22 14:39:55;;;;;;;;;;;29.50;37.70;;;;;;5025690;28;19968;-29
2022/09/22 14:42:27;;;;;;;;;;;29.60;35.90;;;;;;5015593;28;19924;-29
2022/09/22 14:45:06;;;;;;;;;;;29.80;35.10;;;;;;5009177;28;19977;-29
2022/09/22 14:47:38;;;;;;;;;;;29.70;34.50;;;;;;5012372;28;20383;-29
2022/09/22 14:50:07;;;;;;;;;;;29.70;35.00;;;;;;5011744;28;19917;-29
2022/09/22 14:52:34;;;;;;;;;;;29.60;34.50;;;;;;5012943;28;19925;-29